Accueil
METAR-TAF:

METAR-TAF

Aéroports :

Hugo, Oklahoma, États-Unis

latitude: 34-02-05N, longitude: 095-32-31W, altitude: 174 m

Observation

Le bulletin a été fait il y a 15 minutes, à 17:35 UTC
Vent 8 kt de sud
Température 28°C
Humidité 66%
Pression 1017 hPa
Visibilité: 16.1 km
Nuages épars à une hauteur de 2400 ft
Nuages épars à une hauteur de 2900 ft

METAR: KHHW 201735Z AUTO 17008KT 10SM SCT024 SCT029 28/21 A3002 RMK AO2 T02760207

Heure: 12:50 (17:50 UTC)


TAF: absent

Observations et prévisions météorologiques de plus de 4000 aéroports (messages METAR et TAF).

Les stations disponibles sont représentées par des disques jaunes et rouges sur la carte.

Passer la souris dessus pour voir le nom de la station.

Cliquer dessus pour voir les observations et prévisions météorologiques.

Pour changer de carte: cliquez sur les boutons verts avec une croix noire pour zoomer, sur le bouton vert avec un tiret pour effectuer un zoom arrière, ou sur les flèches vertes pour les cartes adjacentes.


METAR-TAF: